Terminal Aerodrome Forecast
Issued by NWS Spokane, WA

Home | Current Version | Previous Version | Text Only | Print | Product List | Glossary On
Versions: 1 2 3 4 5 6 7 8 9 10 11 12 13 14 15 16 17 18 19 20 21 22 23 24 25 26 27
000
FTUS46 KOTX 041727
TAFGEG
TAF
KGEG 041727Z 0418/0518 06005KT P6SM FEW070 FEW200
     FM050200 03007KT P6SM VCSH SCT060 BKN100
     FM050900 03009KT P6SM -RA SCT030 BKN060 OVC100
     FM051200 03010KT P6SM RA BKN030 OVC060 PROB30 0512/0516 TSRA
      BKN030 OVC060CB=

USA.gov is the U.S. government's official web portal to all federal, state and local government web resources and services.